createdAt,value
2017-03-22T00:00:23.375Z,991.69
2017-03-22T00:01:23.402Z,991.69
2017-03-22T00:02:23.429Z,991.68
2017-03-22T00:03:23.456Z,991.71
2017-03-22T00:04:23.488Z,991.71
2017-03-22T00:05:23.514Z,991.67
2017-03-22T00:06:23.536Z,991.67
2017-03-22T00:07:23.566Z,991.67
2017-03-22T00:08:23.600Z,991.6
2017-03-22T00:09:23.620Z,991.6
2017-03-22T00:10:23.647Z,991.58
2017-03-22T00:11:23.673Z,991.56
2017-03-22T00:12:23.702Z,991.56
2017-03-22T00:13:23.732Z,991.54
2017-03-22T00:14:23.755Z,991.56
2017-03-22T00:15:23.783Z,991.56
2017-03-22T00:16:23.804Z,991.53
2017-03-22T00:17:23.837Z,991.5
2017-03-22T00:18:23.866Z,991.55
2017-03-22T00:19:23.892Z,991.53
2017-03-22T00:20:23.920Z,991.52
2017-03-22T00:21:23.940Z,991.51
2017-03-22T00:22:23.973Z,991.52
2017-03-22T00:23:24.002Z,991.5
2017-03-22T00:24:24.027Z,991.47
2017-03-22T00:25:24.058Z,991.51
2017-03-22T00:26:24.080Z,991.51
2017-03-22T00:27:24.109Z,991.53
2017-03-22T00:28:24.138Z,991.57
2017-03-22T00:29:24.162Z,991.55
2017-03-22T00:30:24.191Z,991.61
2017-03-22T00:31:24.219Z,991.62
2017-03-22T00:32:24.245Z,991.58
2017-03-22T00:33:24.274Z,991.58
2017-03-22T00:34:24.298Z,991.58
2017-03-22T00:35:24.324Z,991.57
2017-03-22T00:36:24.349Z,991.61
2017-03-22T00:37:24.380Z,991.61
2017-03-22T00:38:24.409Z,991.6
2017-03-22T00:39:24.435Z,991.63
2017-03-22T00:40:24.463Z,991.65
2017-03-22T00:41:24.493Z,991.63
2017-03-22T00:42:24.516Z,991.61
2017-03-22T00:43:24.541Z,991.6
2017-03-22T00:44:24.570Z,991.66
2017-03-22T00:45:24.598Z,991.67
2017-03-22T00:46:24.618Z,991.65
2017-03-22T00:47:24.652Z,991.61
2017-03-22T00:48:24.681Z,991.6
2017-03-22T00:49:24.706Z,991.6
2017-03-22T00:50:24.734Z,991.62
2017-03-22T00:51:24.759Z,991.59
2017-03-22T00:52:24.787Z,991.62
2017-03-22T00:53:24.817Z,991.64
2017-03-22T00:54:24.843Z,991.6
2017-03-22T00:55:24.869Z,991.65
2017-03-22T00:56:24.895Z,991.65
2017-03-22T00:57:24.923Z,991.63
2017-03-22T00:58:24.949Z,991.59
2017-03-22T00:59:24.977Z,991.56
2017-03-22T01:00:25.005Z,991.59
2017-03-22T01:01:25.030Z,991.57
2017-03-22T01:02:25.055Z,991.59
2017-03-22T01:03:25.084Z,991.58
2017-03-22T01:04:25.113Z,991.54
2017-03-22T01:05:25.137Z,991.53
2017-03-22T01:06:25.165Z,991.51
2017-03-22T01:07:25.197Z,991.52
2017-03-22T01:08:25.221Z,991.54
2017-03-22T01:09:25.248Z,991.53
2017-03-22T01:10:25.272Z,991.48
2017-03-22T01:11:25.302Z,991.48
2017-03-22T01:12:25.327Z,991.45
2017-03-22T01:13:25.355Z,991.42
2017-03-22T01:14:25.384Z,991.42
2017-03-22T01:15:25.409Z,991.43
2017-03-22T01:16:25.430Z,991.42
2017-03-22T01:17:25.462Z,991.4
2017-03-22T01:18:25.498Z,991.38
2017-03-22T01:19:25.515Z,991.42
2017-03-22T01:20:25.544Z,991.47
2017-03-22T01:21:25.572Z,991.46
2017-03-22T01:22:25.597Z,991.46
2017-03-22T01:23:25.618Z,991.42
2017-03-22T01:24:25.652Z,991.46
2017-03-22T01:25:25.680Z,991.38
2017-03-22T01:26:25.704Z,991.38
2017-03-22T01:27:25.733Z,991.39
2017-03-22T01:28:25.765Z,991.35
2017-03-22T01:29:25.788Z,991.32
2017-03-22T01:30:25.811Z,991.33
2017-03-22T01:31:25.840Z,991.26
2017-03-22T01:32:25.869Z,991.26
2017-03-22T01:33:25.890Z,991.25
2017-03-22T01:34:25.923Z,991.29
2017-03-22T01:35:25.947Z,991.31
2017-03-22T01:36:26.228Z,991.33
2017-03-22T01:37:26.001Z,991.33
2017-03-22T01:38:26.028Z,991.34
2017-03-22T01:39:26.055Z,991.31
2017-03-22T01:40:26.083Z,991.27
2017-03-22T01:41:26.356Z,991.28
2017-03-22T01:42:26.132Z,991.26
2017-03-22T01:43:26.161Z,991.24
2017-03-22T01:44:26.189Z,991.2
2017-03-22T01:45:26.214Z,991.25
2017-03-22T01:46:26.490Z,991.24
2017-03-22T01:47:26.272Z,991.23
2017-03-22T01:48:26.302Z,991.19
2017-03-22T01:49:26.332Z,991.18
2017-03-22T01:50:26.350Z,991.2
2017-03-22T01:51:26.630Z,991.2
2017-03-22T01:52:26.405Z,991.22
2017-03-22T01:53:26.433Z,991.2
2017-03-22T01:54:26.453Z,991.22
2017-03-22T01:55:26.486Z,991.19
2017-03-22T01:56:26.763Z,991.21
2017-03-22T01:57:26.540Z,991.24
2017-03-22T01:58:26.565Z,991.25
2017-03-22T01:59:26.594Z,991.24
2017-03-22T02:00:26.618Z,991.26
2017-03-22T02:01:26.643Z,991.27
2017-03-22T02:02:26.676Z,991.32
2017-03-22T02:03:26.701Z,991.3
2017-03-22T02:04:26.730Z,991.31
2017-03-22T02:05:26.754Z,991.26
2017-03-22T02:06:26.783Z,991.27
2017-03-22T02:07:26.809Z,991.29
2017-03-22T02:08:26.836Z,991.3
2017-03-22T02:09:26.857Z,991.28
2017-03-22T02:10:26.890Z,991.32
2017-03-22T02:11:26.914Z,991.28
2017-03-22T02:12:26.951Z,991.29
2017-03-22T02:13:26.968Z,991.29
2017-03-22T02:14:26.997Z,991.29
2017-03-22T02:15:27.022Z,991.32
2017-03-22T02:16:27.049Z,991.27
2017-03-22T02:17:27.080Z,991.29
2017-03-22T02:18:27.100Z,991.26
2017-03-22T02:19:27.128Z,991.3
2017-03-22T02:20:27.157Z,991.32
2017-03-22T02:21:27.186Z,991.32
2017-03-22T02:22:27.210Z,991.3
2017-03-22T02:23:27.247Z,991.29
2017-03-22T02:24:27.263Z,991.34
2017-03-22T02:25:27.292Z,991.35
2017-03-22T02:26:27.318Z,991.32
2017-03-22T02:27:27.348Z,991.32
2017-03-22T02:28:27.372Z,991.36
2017-03-22T02:29:27.397Z,991.38
2017-03-22T02:30:27.424Z,991.39
2017-03-22T02:31:27.453Z,991.39
2017-03-22T02:32:27.478Z,991.4
2017-03-22T02:33:27.506Z,991.42
2017-03-22T02:34:27.531Z,991.39
2017-03-22T02:35:27.560Z,991.41
2017-03-22T02:36:27.586Z,991.38
2017-03-22T02:37:27.612Z,991.37
2017-03-22T02:38:27.635Z,991.38
2017-03-22T02:39:27.667Z,991.4
2017-03-22T02:40:27.692Z,991.39
2017-03-22T02:41:27.720Z,991.43
2017-03-22T02:42:27.744Z,991.41
2017-03-22T02:43:27.774Z,991.39
2017-03-22T02:44:27.799Z,991.39
2017-03-22T02:45:27.827Z,991.38
2017-03-22T02:46:27.852Z,991.38
2017-03-22T02:47:27.885Z,991.38
2017-03-22T02:48:27.905Z,991.38
2017-03-22T02:49:27.934Z,991.39
2017-03-22T02:50:27.959Z,991.39
2017-03-22T02:51:27.983Z,991.4
2017-03-22T02:52:28.014Z,991.38
2017-03-22T02:53:28.084Z,991.4
2017-03-22T02:54:28.067Z,991.37
2017-03-22T02:55:28.096Z,991.38
2017-03-22T02:56:28.120Z,991.34
2017-03-22T02:57:28.148Z,991.29
2017-03-22T02:58:28.173Z,991.33
2017-03-22T02:59:28.202Z,991.32
2017-03-22T03:00:28.230Z,991.28
2017-03-22T03:01:28.255Z,991.29
2017-03-22T03:02:28.532Z,991.3
2017-03-22T03:03:28.309Z,991.3
2017-03-22T03:04:28.334Z,991.25
2017-03-22T03:05:28.359Z,991.27
2017-03-22T03:06:28.387Z,991.31
2017-03-22T03:07:28.661Z,991.26
2017-03-22T03:08:28.440Z,991.25
2017-03-22T03:09:28.469Z,991.28
2017-03-22T03:10:28.494Z,991.26
2017-03-22T03:11:28.522Z,991.22
2017-03-22T03:12:28.798Z,991.24
2017-03-22T03:13:28.573Z,991.22
2017-03-22T03:14:28.597Z,991.24
2017-03-22T03:15:28.629Z,991.27
2017-03-22T03:16:28.654Z,991.3
2017-03-22T03:17:28.675Z,991.32
2017-03-22T03:18:28.710Z,991.33
2017-03-22T03:19:28.733Z,991.29
2017-03-22T03:20:28.755Z,991.32
2017-03-22T03:21:28.787Z,991.28
2017-03-22T03:22:28.814Z,991.31
2017-03-22T03:23:28.839Z,991.35
2017-03-22T03:24:28.868Z,991.33
2017-03-22T03:25:28.891Z,991.35
2017-03-22T03:26:28.920Z,991.36
2017-03-22T03:27:28.947Z,991.34
2017-03-22T03:28:28.974Z,991.35
2017-03-22T03:29:29.000Z,991.33
2017-03-22T03:30:29.030Z,991.38
2017-03-22T03:31:29.054Z,991.37
2017-03-22T03:32:29.079Z,991.4
2017-03-22T03:33:29.104Z,991.4
2017-03-22T03:34:29.136Z,991.4
2017-03-22T03:35:29.161Z,991.39
2017-03-22T03:36:29.186Z,991.39
2017-03-22T03:37:29.214Z,991.39
2017-03-22T03:38:29.235Z,991.36
2017-03-22T03:39:29.266Z,991.41
2017-03-22T03:40:29.293Z,991.39
2017-03-22T03:41:29.321Z,991.42
2017-03-22T03:42:29.346Z,991.43
2017-03-22T03:43:29.371Z,991.42
2017-03-22T03:44:29.396Z,991.46
2017-03-22T03:45:29.433Z,991.47
2017-03-22T03:46:29.453Z,991.48
2017-03-22T03:52:47.703Z,991.44
2017-03-22T03:53:47.726Z,991.46
2017-03-22T03:54:47.755Z,991.51
2017-03-22T03:55:47.776Z,991.48
2017-03-22T03:56:47.814Z,991.46
2017-03-22T03:57:48.081Z,991.48
2017-03-22T03:58:47.859Z,991.48
2017-03-22T03:59:47.887Z,991.46
2017-03-22T04:00:47.916Z,991.48
2017-03-22T04:01:47.952Z,991.45
2017-03-22T04:02:48.221Z,991.48
2017-03-22T04:03:47.994Z,991.48
2017-03-22T04:04:48.023Z,991.45
2017-03-22T04:05:48.046Z,991.48
2017-03-22T04:06:48.077Z,991.47
2017-03-22T04:07:48.352Z,991.41
2017-03-22T04:08:48.125Z,991.39
2017-03-22T04:09:48.155Z,991.41
2017-03-22T04:10:48.178Z,991.42
2017-03-22T04:11:48.208Z,991.37
2017-03-22T04:12:48.484Z,991.36
2017-03-22T04:13:48.262Z,991.38
2017-03-22T04:14:48.286Z,991.36
2017-03-22T04:15:48.316Z,991.36
2017-03-22T04:16:48.343Z,991.36
2017-03-22T04:17:48.621Z,991.38
2017-03-22T04:18:48.393Z,991.4
2017-03-22T04:19:48.414Z,991.38
2017-03-22T04:20:48.447Z,991.37
2017-03-22T04:21:48.471Z,991.37
2017-03-22T04:22:48.748Z,991.37
2017-03-22T04:23:48.520Z,991.35
2017-03-22T04:24:48.554Z,991.33
2017-03-22T04:25:48.577Z,991.36
2017-03-22T04:26:48.605Z,991.4
2017-03-22T04:27:48.633Z,991.36
2017-03-22T04:28:48.662Z,991.38
2017-03-22T04:29:48.685Z,991.38
2017-03-22T04:30:48.714Z,991.42
2017-03-22T04:31:48.735Z,991.37
2017-03-22T04:32:48.767Z,991.34
2017-03-22T04:33:48.794Z,991.35
2017-03-22T04:34:48.817Z,991.31
2017-03-22T04:35:48.849Z,991.32
2017-03-22T04:36:48.871Z,991.29
2017-03-22T04:37:48.900Z,991.34
2017-03-22T04:38:48.924Z,991.3
2017-03-22T04:39:48.953Z,991.32
2017-03-22T04:40:48.977Z,991.33
2017-03-22T04:41:48.997Z,991.32
2017-03-22T04:42:49.031Z,991.31
2017-03-22T04:43:49.062Z,991.31
2017-03-22T04:44:49.085Z,991.36
2017-03-22T04:45:49.109Z,991.33
2017-03-22T04:46:49.137Z,991.33
2017-03-22T04:47:49.167Z,991.34
2017-03-22T04:48:49.192Z,991.38
2017-03-22T04:49:49.216Z,991.37
2017-03-22T04:50:49.245Z,991.34
2017-03-22T04:51:49.269Z,991.32
2017-03-22T04:52:49.296Z,991.32
2017-03-22T04:53:49.324Z,991.31
2017-03-22T04:54:49.344Z,991.37
2017-03-22T04:55:49.376Z,991.32
2017-03-22T04:56:49.406Z,991.31
2017-03-22T04:57:49.431Z,991.33
2017-03-22T04:58:49.454Z,991.26
2017-03-22T04:59:49.476Z,991.27
2017-03-22T05:00:49.509Z,991.27
2017-03-22T05:01:49.533Z,991.23
2017-03-22T05:02:49.562Z,991.25
2017-03-22T05:03:49.586Z,991.26
2017-03-22T05:04:49.612Z,991.28
2017-03-22T05:05:49.641Z,991.25
2017-03-22T05:06:49.674Z,991.26
2017-03-22T05:07:49.694Z,991.27
2017-03-22T05:08:49.723Z,991.33
2017-03-22T05:09:49.748Z,991.28
2017-03-22T05:10:49.772Z,991.29
2017-03-22T05:11:49.801Z,991.28
2017-03-22T05:12:49.827Z,991.26
2017-03-22T05:13:49.855Z,991.27
2017-03-22T05:14:49.881Z,991.25
2017-03-22T05:15:49.907Z,991.27
2017-03-22T05:16:49.932Z,991.23
2017-03-22T05:17:49.960Z,991.25
2017-03-22T05:18:49.986Z,991.21
2017-03-22T05:19:50.008Z,991.22
2017-03-22T05:20:50.036Z,991.3
2017-03-22T05:21:50.063Z,991.26
2017-03-22T05:22:50.100Z,991.27
2017-03-22T05:23:50.117Z,991.29
2017-03-22T05:24:50.147Z,991.26
2017-03-22T05:25:50.171Z,991.24
2017-03-22T05:26:50.200Z,991.22
2017-03-22T05:27:50.225Z,991.2
2017-03-22T05:28:50.249Z,991.2
2017-03-22T05:29:50.279Z,991.19
2017-03-22T05:30:50.313Z,991.19
2017-03-22T05:31:50.331Z,991.17
2017-03-22T05:32:50.355Z,991.18
2017-03-22T05:33:50.633Z,991.2
2017-03-22T05:34:50.410Z,991.15
2017-03-22T05:35:50.431Z,991.21
2017-03-22T05:36:50.463Z,991.2
2017-03-22T05:37:50.488Z,991.18
2017-03-22T05:38:50.766Z,991.12
2017-03-22T05:39:50.546Z,991.13
2017-03-22T05:40:50.565Z,991.15
2017-03-22T05:41:50.594Z,991.17
2017-03-22T05:42:50.622Z,991.16
2017-03-22T05:43:50.648Z,991.16
2017-03-22T05:44:50.673Z,991.15
2017-03-22T05:45:50.700Z,991.16
2017-03-22T05:46:50.726Z,991.13
2017-03-22T05:47:50.755Z,991.15
2017-03-22T05:48:50.780Z,991.08
2017-03-22T05:49:50.812Z,991.09
2017-03-22T05:50:50.838Z,991.11
2017-03-22T05:51:50.855Z,991.14
2017-03-22T05:52:50.884Z,991.08
2017-03-22T05:53:50.912Z,991.13
2017-03-22T05:54:50.942Z,991.11
2017-03-22T05:55:50.966Z,991.1
2017-03-22T05:56:50.995Z,991.13
2017-03-22T05:57:51.016Z,991.09
2017-03-22T05:58:51.055Z,991.16
2017-03-22T05:59:51.073Z,991.12
2017-03-22T06:00:51.101Z,991.15
2017-03-22T06:01:51.123Z,991.11
2017-03-22T06:02:51.155Z,991.12
2017-03-22T06:03:51.185Z,991.13
2017-03-22T06:04:51.212Z,991.14
2017-03-22T06:05:51.234Z,991.14
2017-03-22T06:06:51.261Z,991.16
2017-03-22T06:07:51.287Z,991.17
2017-03-22T06:08:51.319Z,991.16
2017-03-22T06:09:51.341Z,991.21
2017-03-22T06:10:51.369Z,991.19
2017-03-22T06:11:51.392Z,991.2
2017-03-22T06:12:51.413Z,991.21
2017-03-22T06:13:51.442Z,991.2
2017-03-22T06:14:51.480Z,991.21
2017-03-22T06:15:51.500Z,991.17
2017-03-22T06:16:51.526Z,991.18
2017-03-22T06:17:51.559Z,991.21
2017-03-22T06:18:51.583Z,991.23
2017-03-22T06:19:51.608Z,991.21
2017-03-22T06:20:51.632Z,991.22
2017-03-22T06:21:51.658Z,991.25
2017-03-22T06:22:51.688Z,991.27
2017-03-22T06:23:51.715Z,991.26
2017-03-22T06:24:51.740Z,991.27
2017-03-22T06:25:51.768Z,991.33
2017-03-22T06:26:51.797Z,991.28
2017-03-22T06:27:51.821Z,991.27
2017-03-22T06:28:51.846Z,991.33
2017-03-22T06:29:51.876Z,991.3
2017-03-22T06:30:51.904Z,991.3
2017-03-22T06:31:51.928Z,991.3
2017-03-22T06:32:51.954Z,991.28
2017-03-22T06:33:51.983Z,991.31
2017-03-22T06:34:52.002Z,991.28
2017-03-22T06:35:52.035Z,991.29
2017-03-22T06:36:52.063Z,991.28
2017-03-22T06:37:52.088Z,991.29
2017-03-22T06:38:52.112Z,991.3
2017-03-22T06:39:52.142Z,991.3
2017-03-22T06:40:52.171Z,991.3
2017-03-22T06:41:52.195Z,991.28
2017-03-22T06:42:52.221Z,991.29
2017-03-22T06:43:52.249Z,991.26
2017-03-22T06:44:52.275Z,991.26
2017-03-22T06:45:52.302Z,991.3
2017-03-22T06:46:52.331Z,991.29
2017-03-22T06:47:52.352Z,991.29
2017-03-22T06:48:52.385Z,991.27
2017-03-22T06:49:52.410Z,991.27
2017-03-22T06:50:52.439Z,991.26
2017-03-22T06:51:52.463Z,991.24
2017-03-22T06:52:52.492Z,991.28
2017-03-22T06:53:52.517Z,991.32
2017-03-22T06:54:52.545Z,991.32
2017-03-22T06:55:52.570Z,991.32
2017-03-22T06:56:52.600Z,991.33
2017-03-22T06:57:52.623Z,991.3
2017-03-22T06:58:52.648Z,991.34
2017-03-22T06:59:52.682Z,991.35
2017-03-22T07:00:52.705Z,991.29
2017-03-22T07:01:52.730Z,991.33
2017-03-22T07:02:52.760Z,991.29
2017-03-22T07:03:52.789Z,991.31
2017-03-22T07:04:52.813Z,991.33
2017-03-22T07:05:52.841Z,991.31
2017-03-22T07:06:52.868Z,991.29
2017-03-22T07:07:52.897Z,991.31
2017-03-22T07:08:52.922Z,991.34
2017-03-22T07:09:53.216Z,991.34
2017-03-22T07:10:52.971Z,991.31
2017-03-22T07:11:53.005Z,991.36
2017-03-22T07:12:53.028Z,991.37
2017-03-22T07:13:53.056Z,991.36
2017-03-22T07:14:53.337Z,991.34
2017-03-22T07:15:53.110Z,991.36
2017-03-22T07:16:53.140Z,991.37
2017-03-22T07:17:53.162Z,991.36
2017-03-22T07:18:53.192Z,991.37
2017-03-22T07:19:53.469Z,991.39
2017-03-22T07:20:53.241Z,991.41
2017-03-22T07:21:53.275Z,991.37
2017-03-22T07:22:53.303Z,991.39
2017-03-22T07:23:53.328Z,991.39
2017-03-22T07:24:53.604Z,991.39
2017-03-22T07:25:53.382Z,991.41
2017-03-22T07:26:53.405Z,991.41
2017-03-22T07:27:53.434Z,991.45
2017-03-22T07:28:53.465Z,991.42
2017-03-22T07:29:53.745Z,991.4
2017-03-22T07:30:53.516Z,991.42
2017-03-22T07:31:53.537Z,991.41
2017-03-22T07:32:53.570Z,991.43
2017-03-22T07:33:53.596Z,991.45
2017-03-22T07:34:53.872Z,991.41
2017-03-22T07:35:53.656Z,991.44
2017-03-22T07:36:53.671Z,991.43
2017-03-22T07:37:53.706Z,991.45
2017-03-22T07:38:53.735Z,991.44
2017-03-22T07:39:53.759Z,991.46
2017-03-22T07:40:53.787Z,991.48
2017-03-22T07:41:53.822Z,991.54
2017-03-22T07:42:53.841Z,991.46
2017-03-22T07:43:53.872Z,991.49
2017-03-22T07:44:53.894Z,991.48
2017-03-22T07:45:53.924Z,991.48
2017-03-22T07:46:53.953Z,991.52
2017-03-22T07:47:53.977Z,991.47
2017-03-22T07:48:54.011Z,991.51
2017-03-22T07:49:54.033Z,991.54
2017-03-22T07:50:54.061Z,991.51
2017-03-22T07:51:54.085Z,991.54
2017-03-22T07:52:54.115Z,991.55
2017-03-22T07:53:54.142Z,991.51
2017-03-22T07:54:54.168Z,991.56
2017-03-22T07:55:54.196Z,991.49
2017-03-22T07:56:54.220Z,991.53
2017-03-22T07:57:54.248Z,991.5
2017-03-22T07:58:54.279Z,991.52
2017-03-22T07:59:54.307Z,991.5
2017-03-22T08:00:54.332Z,991.55
2017-03-22T08:01:54.359Z,991.5
2017-03-22T08:02:54.384Z,991.5
2017-03-22T08:03:54.413Z,991.53
2017-03-22T08:04:54.444Z,991.52
2017-03-22T08:05:54.467Z,991.53
2017-03-22T08:06:54.491Z,991.54
2017-03-22T08:07:54.520Z,991.51
2017-03-22T08:08:54.552Z,991.57
2017-03-22T08:09:54.572Z,991.55
2017-03-22T08:10:54.603Z,991.57
2017-03-22T08:11:54.636Z,991.58
2017-03-22T08:12:54.661Z,991.57
2017-03-22T08:13:54.690Z,991.59
2017-03-22T08:14:54.715Z,991.56
2017-03-22T08:15:54.739Z,991.61
2017-03-22T08:16:54.768Z,991.61
2017-03-22T08:17:54.792Z,991.57
2017-03-22T08:18:54.821Z,991.55
2017-03-22T08:19:54.849Z,991.61
2017-03-22T08:20:54.874Z,991.61
2017-03-22T08:21:54.899Z,991.6
2017-03-22T08:22:54.932Z,991.6
2017-03-22T08:23:54.956Z,991.61
2017-03-22T08:24:54.984Z,991.62
2017-03-22T08:25:55.009Z,991.6
2017-03-22T08:26:55.039Z,991.62
2017-03-22T08:27:55.066Z,991.62
2017-03-22T08:28:55.092Z,991.6
2017-03-22T08:29:55.122Z,991.59
2017-03-22T08:30:55.150Z,991.58
2017-03-22T08:31:55.174Z,991.61
2017-03-22T08:32:55.203Z,991.56
2017-03-22T08:33:55.231Z,991.59
2017-03-22T08:34:55.256Z,991.58
2017-03-22T08:35:55.285Z,991.58
2017-03-22T08:36:55.311Z,991.61
2017-03-22T08:37:55.335Z,991.55
2017-03-22T08:38:55.368Z,991.58
2017-03-22T08:39:55.393Z,991.58
2017-03-22T08:40:55.422Z,991.59
2017-03-22T08:41:55.451Z,991.54
2017-03-22T08:42:55.478Z,991.55
2017-03-22T08:43:55.504Z,991.57
2017-03-22T08:44:55.533Z,991.54
2017-03-22T08:45:55.557Z,991.54
2017-03-22T08:46:55.585Z,991.46
2017-03-22T08:47:55.612Z,991.43
2017-03-22T08:48:55.640Z,991.44
2017-03-22T08:49:55.668Z,991.47
2017-03-22T08:50:55.694Z,991.46
2017-03-22T08:51:55.722Z,991.42
2017-03-22T08:52:55.751Z,991.43
2017-03-22T08:53:55.774Z,991.51
2017-03-22T08:54:55.804Z,991.5
2017-03-22T08:55:55.828Z,991.51
2017-03-22T08:56:55.857Z,991.51
2017-03-22T08:57:55.882Z,991.51
2017-03-22T08:58:55.916Z,991.55
2017-03-22T08:59:55.939Z,991.53
2017-03-22T09:00:55.964Z,991.49
2017-03-22T09:01:55.993Z,991.51
2017-03-22T09:02:56.021Z,991.54
2017-03-22T09:03:56.048Z,991.52
2017-03-22T09:04:56.076Z,991.53
2017-03-22T09:05:56.125Z,991.55
2017-03-22T09:06:56.128Z,991.51
2017-03-22T09:07:56.160Z,991.47
2017-03-22T09:08:56.178Z,991.47
2017-03-22T09:09:56.211Z,991.49
2017-03-22T09:10:56.492Z,991.42
2017-03-22T09:11:56.266Z,991.47
2017-03-22T09:12:56.294Z,991.52
2017-03-22T09:13:56.320Z,991.53
2017-03-22T09:14:56.346Z,991.52
2017-03-22T09:15:56.627Z,991.57
2017-03-22T09:16:56.405Z,991.58
2017-03-22T09:17:56.429Z,991.56
2017-03-22T09:18:56.462Z,991.55
2017-03-22T09:19:56.483Z,991.51
2017-03-22T09:20:56.762Z,991.5
2017-03-22T09:21:56.540Z,991.54
2017-03-22T09:22:56.566Z,991.48
2017-03-22T09:23:56.590Z,991.49
2017-03-22T09:24:56.622Z,991.52
2017-03-22T09:25:56.904Z,991.51
2017-03-22T09:26:56.676Z,991.55
2017-03-22T09:27:56.701Z,991.55
2017-03-22T09:28:56.729Z,991.57
2017-03-22T09:29:56.758Z,991.55
2017-03-22T09:30:56.786Z,991.54
2017-03-22T09:31:56.812Z,991.56
2017-03-22T09:32:56.836Z,991.54
2017-03-22T09:33:56.865Z,991.51
2017-03-22T09:34:56.895Z,991.52
2017-03-22T09:35:56.918Z,991.55
2017-03-22T09:36:56.973Z,991.51
2017-03-22T09:37:56.980Z,991.49
2017-03-22T09:38:57.001Z,991.49
2017-03-22T09:39:57.030Z,991.5
2017-03-22T09:40:57.055Z,991.49
2017-03-22T09:41:57.083Z,991.55
2017-03-22T09:42:57.111Z,991.51
2017-03-22T09:43:57.137Z,991.47
2017-03-22T09:44:57.166Z,991.43
2017-03-22T09:45:57.187Z,991.46
2017-03-22T09:46:57.218Z,991.48
2017-03-22T09:47:57.251Z,991.45
2017-03-22T09:48:57.274Z,991.43
2017-03-22T09:49:57.301Z,991.45
2017-03-22T09:50:57.330Z,991.48
2017-03-22T09:51:57.355Z,991.45
2017-03-22T09:52:57.380Z,991.42
2017-03-22T09:53:57.407Z,991.44
2017-03-22T09:54:57.437Z,991.41
2017-03-22T09:55:57.459Z,991.42
2017-03-22T09:56:57.489Z,991.45
2017-03-22T09:57:57.518Z,991.43
2017-03-22T09:58:57.542Z,991.38
2017-03-22T09:59:57.578Z,991.42
2017-03-22T10:00:57.597Z,991.41
2017-03-22T10:01:57.625Z,991.37
2017-03-22T10:02:57.654Z,991.38
2017-03-22T10:03:57.684Z,991.38
2017-03-22T10:04:57.711Z,991.3
2017-03-22T10:05:57.734Z,991.29
2017-03-22T10:06:57.765Z,991.3
2017-03-22T10:07:57.791Z,991.33
2017-03-22T10:08:57.815Z,991.34
2017-03-22T10:09:57.843Z,991.33
2017-03-22T10:10:57.871Z,991.33
2017-03-22T10:11:57.898Z,991.28
2017-03-22T10:12:57.926Z,991.28
2017-03-22T10:13:57.953Z,991.31
2017-03-22T10:14:57.980Z,991.29
2017-03-22T10:15:58.001Z,991.31
2017-03-22T10:16:58.028Z,991.29
2017-03-22T10:17:58.089Z,991.31
2017-03-22T10:18:58.085Z,991.3
2017-03-22T10:19:58.111Z,991.3
2017-03-22T10:20:58.141Z,991.31
2017-03-22T10:21:58.169Z,991.31
2017-03-22T10:22:58.199Z,991.32
2017-03-22T10:23:58.222Z,991.27
2017-03-22T10:24:58.251Z,991.25
2017-03-22T10:25:58.279Z,991.23
2017-03-22T10:26:58.305Z,991.22
2017-03-22T10:27:58.337Z,991.25
2017-03-22T10:28:58.356Z,991.23
2017-03-22T10:29:58.387Z,991.28
2017-03-22T10:30:58.411Z,991.26
2017-03-22T10:31:58.440Z,991.26
2017-03-22T10:32:58.465Z,991.21
2017-03-22T10:33:58.494Z,991.19
2017-03-22T10:34:58.523Z,991.23
2017-03-22T10:35:58.558Z,991.24
2017-03-22T10:36:58.577Z,991.21
2017-03-22T10:37:58.600Z,991.2
2017-03-22T10:38:58.629Z,991.21
2017-03-22T10:39:58.655Z,991.21
2017-03-22T10:40:58.685Z,991.17
2017-03-22T10:41:58.711Z,991.21
2017-03-22T10:42:58.736Z,991.22
2017-03-22T10:43:58.761Z,991.18
2017-03-22T10:44:58.791Z,991.2
2017-03-22T10:45:58.820Z,991.18
2017-03-22T10:46:58.847Z,991.15
2017-03-22T10:47:58.876Z,991.11
2017-03-22T10:48:58.900Z,991.07
2017-03-22T10:49:58.931Z,991.16
2017-03-22T10:50:58.955Z,991.09
2017-03-22T10:51:58.983Z,991.08
2017-03-22T10:52:59.007Z,991.08
2017-03-22T10:53:59.037Z,991.08
2017-03-22T10:54:59.061Z,991.07
2017-03-22T10:55:59.086Z,991.09
2017-03-22T10:56:59.120Z,991.07
2017-03-22T10:57:59.143Z,991.03
2017-03-22T10:58:59.176Z,991.05
2017-03-22T10:59:59.198Z,991.02
2017-03-22T11:00:59.221Z,991.06
2017-03-22T11:01:59.252Z,991.01
2017-03-22T11:02:59.280Z,991.01
2017-03-22T11:03:59.308Z,990.93
2017-03-22T11:04:59.334Z,990.95
2017-03-22T11:05:59.359Z,990.95
2017-03-22T11:06:59.385Z,990.94
2017-03-22T11:07:59.415Z,990.91
2017-03-22T11:08:59.439Z,990.92
2017-03-22T11:09:59.469Z,990.88
2017-03-22T11:10:59.497Z,990.9
2017-03-22T11:11:59.521Z,990.87
2017-03-22T11:12:59.550Z,990.93
2017-03-22T11:13:59.575Z,990.95
2017-03-22T11:14:59.605Z,990.89
2017-03-22T11:15:59.627Z,990.94
2017-03-22T11:16:59.908Z,990.89
2017-03-22T11:17:59.687Z,990.9
2017-03-22T11:18:59.711Z,990.88
2017-03-22T11:19:59.739Z,990.88
2017-03-22T11:20:59.763Z,990.88
2017-03-22T11:21:59.792Z,990.87
2017-03-22T11:22:59.821Z,990.92
2017-03-22T11:23:59.847Z,990.9
2017-03-22T11:24:59.875Z,990.91
2017-03-22T11:25:59.900Z,990.85
2017-03-22T11:26:59.930Z,990.88
2017-03-22T11:27:59.958Z,990.86
2017-03-22T11:28:59.982Z,990.78
2017-03-22T11:30:00.012Z,990.82
2017-03-22T11:31:00.035Z,990.83
2017-03-22T11:32:00.064Z,990.76
2017-03-22T11:33:00.091Z,990.77
2017-03-22T11:34:00.119Z,990.76
2017-03-22T11:35:00.146Z,990.76
2017-03-22T11:36:00.174Z,990.74
2017-03-22T11:37:00.197Z,990.74
2017-03-22T11:38:00.226Z,990.81
2017-03-22T11:39:00.255Z,990.76
2017-03-22T11:40:00.282Z,990.73
2017-03-22T11:41:00.303Z,990.73
2017-03-22T11:42:00.336Z,990.72
2017-03-22T11:43:00.360Z,990.69
2017-03-22T11:44:00.389Z,990.71
2017-03-22T11:45:00.418Z,990.69
2017-03-22T11:46:00.446Z,990.67
2017-03-22T11:47:00.475Z,990.68
2017-03-22T11:48:00.497Z,990.65
2017-03-22T11:49:00.525Z,990.61
2017-03-22T11:50:00.552Z,990.61
2017-03-22T11:51:00.579Z,990.6
2017-03-22T11:52:00.612Z,990.59
2017-03-22T11:53:00.633Z,990.55
2017-03-22T11:54:00.661Z,990.55
2017-03-22T11:55:00.686Z,990.53
2017-03-22T11:56:00.718Z,990.56
2017-03-22T11:57:00.740Z,990.54
2017-03-22T11:58:00.768Z,990.57
2017-03-22T11:59:00.795Z,990.53
2017-03-22T12:00:00.821Z,990.56
2017-03-22T12:01:00.856Z,990.55
2017-03-22T12:02:00.870Z,990.56
2017-03-22T12:03:00.899Z,990.51
2017-03-22T12:04:00.928Z,990.57
2017-03-22T12:05:00.956Z,990.54
2017-03-22T12:06:00.985Z,990.53
2017-03-22T12:07:01.010Z,990.52
2017-03-22T12:08:01.040Z,990.54
2017-03-22T12:09:01.063Z,990.55
2017-03-22T12:10:01.094Z,990.55
2017-03-22T12:11:01.117Z,990.55
2017-03-22T12:12:01.152Z,990.54
2017-03-22T12:13:01.170Z,990.52
2017-03-22T12:14:01.199Z,990.49
2017-03-22T12:15:01.228Z,990.48
2017-03-22T12:16:01.253Z,990.46
2017-03-22T12:17:01.282Z,990.42
2017-03-22T12:18:01.307Z,990.44
2017-03-22T12:19:01.335Z,990.47
2017-03-22T12:20:01.356Z,990.41
2017-03-22T12:21:01.385Z,990.4
2017-03-22T12:22:01.419Z,990.39
2017-03-22T12:23:01.443Z,990.37
2017-03-22T12:24:01.471Z,990.42
2017-03-22T12:25:01.500Z,990.38
2017-03-22T12:26:01.525Z,990.37
2017-03-22T12:27:01.554Z,990.34
2017-03-22T12:28:01.578Z,990.32
2017-03-22T12:29:01.602Z,990.3
2017-03-22T12:30:01.637Z,990.33
2017-03-22T12:31:01.660Z,990.31
2017-03-22T12:32:01.690Z,990.29
2017-03-22T12:33:01.713Z,990.3
2017-03-22T12:34:01.743Z,990.28
2017-03-22T12:35:01.763Z,990.3
2017-03-22T12:36:01.796Z,990.27